createdAt,value
2022-08-18T00:00:01.445Z,22.73
2022-08-18T00:02:30.583Z,22.69
2022-08-18T00:05:00.204Z,22.80
2022-08-18T00:07:32.184Z,22.81
2022-08-18T00:10:01.407Z,22.74
2022-08-18T00:12:57.074Z,22.73
2022-08-18T00:15:26.680Z,22.72
2022-08-18T00:17:54.452Z,22.67
2022-08-18T00:20:24.428Z,22.60
2022-08-18T00:22:52.807Z,22.61
2022-08-18T00:25:22.270Z,22.65
2022-08-18T00:27:50.155Z,22.68
2022-08-18T00:30:20.359Z,22.64
2022-08-18T00:32:52.146Z,22.64
2022-08-18T00:35:33.962Z,22.62
2022-08-18T00:38:05.631Z,22.49
2022-08-18T00:40:41.915Z,22.48
2022-08-18T00:43:25.308Z,22.44
2022-08-18T00:45:53.218Z,22.29
2022-08-18T00:48:23.829Z,22.37
2022-08-18T00:50:56.001Z,22.29
2022-08-18T00:53:52.083Z,22.46
2022-08-18T00:56:29.184Z,22.49
2022-08-18T00:59:31.219Z,22.43
2022-08-18T01:02:04.028Z,22.39
2022-08-18T01:04:42.182Z,22.51
2022-08-18T01:07:34.119Z,22.58
2022-08-18T01:10:04.745Z,22.63
2022-08-18T01:12:45.038Z,22.59
2022-08-18T01:15:27.769Z,22.52
2022-08-18T01:18:41.205Z,22.49
2022-08-18T01:21:39.645Z,22.55
2022-08-18T01:24:09.308Z,22.49
2022-08-18T01:26:44.238Z,22.44
2022-08-18T01:29:19.150Z,22.35
2022-08-18T01:31:55.501Z,22.31
2022-08-18T01:34:27.423Z,22.34
2022-08-18T01:36:55.986Z,22.36
2022-08-18T01:41:23.961Z,22.39
2022-08-18T01:42:20.309Z,22.38
2022-08-18T01:44:51.087Z,22.40
2022-08-18T01:47:19.966Z,22.30
2022-08-18T01:49:47.718Z,22.27
2022-08-18T01:52:21.838Z,22.20
2022-08-18T01:54:51.787Z,22.22
2022-08-18T01:57:21.454Z,22.22
2022-08-18T01:59:53.706Z,22.23
2022-08-18T02:02:25.850Z,22.20
2022-08-18T02:05:01.493Z,22.23
2022-08-18T02:07:35.025Z,22.26
2022-08-18T02:10:10.330Z,22.24
2022-08-18T02:12:41.447Z,22.27
2022-08-18T02:15:10.954Z,22.29
2022-08-18T02:17:41.453Z,22.22
2022-08-18T02:20:15.008Z,22.32
2022-08-18T02:22:43.470Z,22.28
2022-08-18T02:25:11.837Z,22.32
2022-08-18T02:27:39.551Z,22.29
2022-08-18T02:30:11.177Z,22.29
2022-08-18T02:32:39.062Z,22.31
2022-08-18T02:35:08.884Z,22.30
2022-08-18T02:37:47.750Z,22.27
2022-08-18T02:40:17.390Z,22.18
2022-08-18T02:42:46.893Z,21.98
2022-08-18T02:45:14.827Z,22.10
2022-08-18T02:47:49.174Z,22.06
2022-08-18T02:50:17.019Z,22.02
2022-08-18T02:52:44.834Z,22.02
2022-08-18T02:55:13.354Z,22.03
2022-08-18T02:57:45.834Z,22.01
2022-08-18T03:00:16.536Z,21.99
2022-08-18T03:02:52.000Z,21.91
2022-08-18T03:05:22.790Z,21.83
2022-08-18T03:07:51.037Z,21.86
2022-08-18T03:10:31.787Z,21.81
2022-08-18T03:13:02.267Z,21.80
2022-08-18T03:15:30.075Z,21.62
2022-08-18T03:17:58.114Z,21.69
2022-08-18T03:20:30.907Z,21.67
2022-08-18T03:23:09.597Z,21.66
2022-08-18T03:25:47.573Z,21.61
2022-08-18T03:28:16.895Z,21.61
2022-08-18T03:30:44.791Z,21.62
2022-08-18T03:33:12.783Z,21.65
2022-08-18T03:36:06.844Z,21.63
2022-08-18T03:38:34.891Z,21.64
2022-08-18T03:41:02.661Z,21.70
2022-08-18T03:43:50.824Z,21.74
2022-08-18T03:46:22.123Z,21.76
2022-08-18T03:48:50.532Z,21.82
2022-08-18T03:51:26.657Z,21.82
2022-08-18T03:53:59.350Z,21.84
2022-08-18T03:56:34.626Z,21.78
2022-08-18T03:59:28.141Z,21.85
2022-08-18T04:01:56.981Z,21.78
2022-08-18T04:04:51.365Z,21.86
2022-08-18T04:07:21.247Z,22.15
2022-08-18T04:09:53.658Z,22.22
2022-08-18T04:12:21.811Z,22.25
2022-08-18T04:14:50.284Z,22.26
2022-08-18T04:17:24.895Z,22.30
2022-08-18T04:19:54.095Z,22.42
2022-08-18T04:22:23.023Z,22.39
2022-08-18T04:24:51.591Z,22.24
2022-08-18T04:27:22.419Z,22.41
2022-08-18T04:29:50.229Z,22.46
2022-08-18T04:32:19.312Z,22.51
2022-08-18T04:34:47.040Z,22.50
2022-08-18T04:37:15.501Z,22.57
2022-08-18T04:39:44.306Z,22.37
2022-08-18T04:42:12.115Z,22.39
2022-08-18T04:44:44.843Z,22.55
2022-08-18T04:47:13.180Z,22.75
2022-08-18T04:49:41.134Z,22.83
2022-08-18T04:52:40.645Z,22.77
2022-08-18T04:55:10.587Z,22.85
2022-08-18T04:57:38.944Z,22.93
2022-08-18T05:00:08.411Z,22.94
2022-08-18T05:02:36.212Z,23.04
2022-08-18T05:05:05.651Z,23.04
2022-08-18T05:07:33.646Z,22.96
2022-08-18T05:10:01.661Z,22.88
2022-08-18T05:12:29.581Z,-149.27
2022-08-18T05:14:57.700Z,-149.27
2022-08-18T05:17:30.044Z,-149.27
2022-08-18T05:20:04.027Z,-149.27
2022-08-18T05:22:39.159Z,-149.27
2022-08-18T05:25:10.378Z,-149.27
2022-08-18T05:27:42.942Z,-149.27
2022-08-18T05:30:11.534Z,-149.27
2022-08-18T05:32:48.602Z,-149.27
2022-08-18T05:35:26.642Z,-149.27
2022-08-18T05:38:15.847Z,-149.27
2022-08-18T05:40:46.000Z,-149.27
2022-08-18T05:43:15.171Z,-149.27
2022-08-18T05:45:43.317Z,-149.27
2022-08-18T05:48:11.117Z,-149.27
2022-08-18T05:50:38.879Z,-149.27
2022-08-18T05:53:13.549Z,-149.27
2022-08-18T05:56:21.852Z,-149.27
2022-08-18T05:58:51.970Z,-149.27
2022-08-18T06:01:33.781Z,22.88
2022-08-18T06:04:07.216Z,23.74
2022-08-18T06:06:36.925Z,23.53
2022-08-18T06:09:17.798Z,23.64
2022-08-18T06:11:45.768Z,-149.27
2022-08-18T06:14:13.728Z,-149.27
2022-08-18T06:17:35.124Z,-149.27
2022-08-18T06:20:31.621Z,-149.27
2022-08-18T06:23:21.393Z,-149.27
2022-08-18T06:26:34.799Z,23.64
2022-08-18T06:29:21.589Z,-149.27
2022-08-18T06:32:07.406Z,-149.27
2022-08-18T06:34:59.260Z,-149.27
2022-08-18T06:37:56.928Z,-149.27
2022-08-18T06:40:24.677Z,-149.27
2022-08-18T06:42:52.431Z,-149.27
2022-08-18T06:45:33.824Z,-149.27
2022-08-18T06:48:33.138Z,-149.27
2022-08-18T06:51:04.112Z,-149.27
2022-08-18T06:53:57.946Z,-149.27
2022-08-18T06:56:28.571Z,23.64
2022-08-18T06:59:31.702Z,24.69
2022-08-18T07:02:22.888Z,24.56
2022-08-18T07:05:14.480Z,24.62
2022-08-18T07:07:43.260Z,24.81
2022-08-18T07:10:13.885Z,24.72
2022-08-18T07:12:42.205Z,24.90
2022-08-18T07:15:27.507Z,24.95
2022-08-18T07:17:55.953Z,24.72
2022-08-18T07:20:25.797Z,24.84
2022-08-18T07:23:00.214Z,24.79
2022-08-18T07:25:42.114Z,24.77
2022-08-18T07:28:39.792Z,24.75
2022-08-18T07:31:42.799Z,24.78
2022-08-18T07:34:25.405Z,24.96
2022-08-18T07:37:03.375Z,25.16
2022-08-18T07:40:06.122Z,25.15
2022-08-18T07:43:00.647Z,25.14
2022-08-18T07:45:33.641Z,-149.27
2022-08-18T07:48:38.206Z,-149.27
2022-08-18T07:51:35.166Z,-149.27
2022-08-18T07:54:48.893Z,-149.27
2022-08-18T07:57:56.545Z,-149.27
2022-08-18T08:00:57.570Z,-149.27
2022-08-18T08:04:25.543Z,-149.27
2022-08-18T08:07:23.459Z,-149.27
2022-08-18T08:09:58.733Z,-149.27
2022-08-18T08:12:37.018Z,-149.27
2022-08-18T08:15:53.286Z,25.87
2022-08-18T08:18:36.439Z,25.64
2022-08-18T08:21:15.566Z,25.94
2022-08-18T08:23:55.973Z,26.15
2022-08-18T08:26:49.121Z,26.18
2022-08-18T08:30:03.007Z,26.35
2022-08-18T08:32:39.273Z,26.27
2022-08-18T08:35:49.274Z,25.99
2022-08-18T08:38:44.460Z,25.49
2022-08-18T08:41:26.099Z,25.77
2022-08-18T08:44:11.344Z,25.92
2022-08-18T08:46:52.312Z,26.25
2022-08-18T08:49:35.902Z,26.35
2022-08-18T08:52:10.242Z,26.23
2022-08-18T08:54:53.680Z,26.56
2022-08-18T08:57:34.266Z,26.45
2022-08-18T09:00:06.612Z,26.83
2022-08-18T09:02:52.917Z,26.78
2022-08-18T09:05:25.953Z,26.47
2022-08-18T09:08:23.970Z,26.68
2022-08-18T09:11:18.753Z,27.10
2022-08-18T09:14:33.616Z,27.28
2022-08-18T09:17:33.913Z,27.26
2022-08-18T09:20:27.616Z,27.07
2022-08-18T09:23:10.278Z,26.98
2022-08-18T09:26:41.240Z,27.08
2022-08-18T09:29:27.354Z,27.20
2022-08-18T09:32:24.062Z,27.01
2022-08-18T09:35:05.516Z,27.01
2022-08-18T09:38:11.945Z,26.60
2022-08-18T09:41:11.365Z,-149.27
2022-08-18T09:43:55.510Z,-149.27
2022-08-18T09:49:40.897Z,-149.27
2022-08-18T09:52:24.121Z,-149.27
2022-08-18T09:55:09.570Z,-149.27
2022-08-18T10:00:33.737Z,-149.27
2022-08-18T10:03:11.134Z,-149.27
2022-08-18T10:05:40.049Z,-149.27
2022-08-18T10:08:37.009Z,-149.27
2022-08-18T10:11:41.055Z,-149.27
2022-08-18T10:14:35.420Z,-149.27
2022-08-18T10:17:53.856Z,-149.27
2022-08-18T10:20:42.708Z,28.67
2022-08-18T10:23:10.371Z,29.23
2022-08-18T10:25:47.503Z,29.30
2022-08-18T10:29:37.903Z,29.25
2022-08-18T10:32:08.181Z,28.13
2022-08-18T10:37:39.851Z,27.85
2022-08-18T10:40:13.660Z,28.13
2022-08-18T10:43:26.720Z,28.42
2022-08-18T10:46:23.719Z,28.77
2022-08-18T10:48:42.143Z,28.92
2022-08-18T10:51:30.774Z,28.95
2022-08-18T10:54:29.839Z,28.51
2022-08-18T10:57:28.714Z,28.51
2022-08-18T11:00:19.783Z,28.82
2022-08-18T11:03:02.447Z,28.40
2022-08-18T11:05:42.881Z,28.54
2022-08-18T11:08:17.202Z,28.67
2022-08-18T11:11:24.867Z,28.79
2022-08-18T11:14:01.275Z,29.07
2022-08-18T11:17:51.785Z,29.31
2022-08-18T11:20:21.001Z,-149.27
2022-08-18T11:23:00.944Z,-149.27
2022-08-18T11:25:34.673Z,-149.27
2022-08-18T11:28:03.252Z,-149.27
2022-08-18T11:30:37.539Z,-149.27
2022-08-18T11:33:08.025Z,-149.27
2022-08-18T11:35:58.027Z,-149.27
2022-08-18T11:38:29.411Z,-149.27
2022-08-18T11:41:48.101Z,-149.27
2022-08-18T11:44:25.364Z,-149.27
2022-08-18T11:46:57.414Z,29.41
2022-08-18T11:49:36.575Z,29.53
2022-08-18T11:52:30.977Z,29.67
2022-08-18T11:55:14.391Z,29.55
2022-08-18T11:57:59.039Z,29.57
2022-08-18T12:00:46.050Z,29.50
2022-08-18T12:03:31.990Z,29.40
2022-08-18T12:06:19.061Z,29.12
2022-08-18T12:09:02.127Z,29.03
2022-08-18T12:12:01.116Z,29.20
2022-08-18T12:14:35.280Z,29.24
2022-08-18T12:17:08.006Z,29.26
2022-08-18T12:19:36.122Z,29.33
2022-08-18T12:22:19.080Z,28.97
2022-08-18T12:24:48.496Z,28.85
2022-08-18T12:27:21.439Z,28.59
2022-08-18T12:29:55.729Z,28.56
2022-08-18T12:32:41.803Z,28.76
2022-08-18T12:35:15.753Z,29.12
2022-08-18T12:38:13.805Z,29.57
2022-08-18T12:40:38.140Z,29.92
2022-08-18T12:43:06.690Z,30.46
2022-08-18T12:45:37.558Z,31.02
2022-08-18T12:48:07.778Z,31.61
2022-08-18T12:50:49.715Z,32.32
2022-08-18T12:53:29.043Z,33.46
2022-08-18T12:55:58.840Z,34.37
2022-08-18T12:58:28.234Z,34.85
2022-08-18T13:00:56.660Z,35.56
2022-08-18T13:03:42.543Z,35.60
2022-08-18T13:06:15.353Z,36.09
2022-08-18T13:08:49.993Z,36.54
2022-08-18T13:11:24.909Z,36.96
2022-08-18T13:13:56.063Z,36.33
2022-08-18T13:16:54.206Z,36.94
2022-08-18T13:19:22.922Z,37.04
2022-08-18T13:21:51.814Z,37.11
2022-08-18T13:24:21.219Z,38.08
2022-08-18T13:26:51.719Z,37.94
2022-08-18T13:29:21.000Z,38.16
2022-08-18T13:31:57.745Z,37.58
2022-08-18T13:34:29.970Z,36.64
2022-08-18T13:36:58.592Z,35.32
2022-08-18T13:39:33.617Z,35.32
2022-08-18T13:42:21.583Z,34.64
2022-08-18T13:44:53.230Z,35.73
2022-08-18T13:47:28.340Z,35.60
2022-08-18T13:49:58.521Z,35.72
2022-08-18T13:52:36.200Z,35.71
2022-08-18T13:55:16.799Z,35.59
2022-08-18T13:57:49.987Z,34.92
2022-08-18T14:00:29.958Z,35.19
2022-08-18T14:03:02.038Z,35.94
2022-08-18T14:05:36.171Z,35.24
2022-08-18T14:08:19.673Z,34.79
2022-08-18T14:10:50.763Z,34.57
2022-08-18T14:13:20.524Z,33.84
2022-08-18T14:15:56.186Z,33.42
2022-08-18T14:18:29.123Z,33.49
2022-08-18T14:21:23.202Z,33.31
2022-08-18T14:24:10.508Z,32.76
2022-08-18T14:26:49.960Z,32.28
2022-08-18T14:29:45.433Z,31.97
2022-08-18T14:32:07.486Z,32.00
2022-08-18T14:34:35.876Z,31.58
2022-08-18T14:37:03.923Z,31.53
2022-08-18T14:39:31.724Z,31.16
2022-08-18T14:42:04.333Z,31.12
2022-08-18T14:44:34.566Z,31.17
2022-08-18T14:47:02.568Z,31.06
2022-08-18T14:49:31.115Z,31.20
2022-08-18T14:52:01.148Z,30.96
2022-08-18T14:54:31.066Z,31.13
2022-08-18T14:57:03.940Z,31.15
2022-08-18T14:59:37.488Z,31.25
2022-08-18T15:02:13.077Z,31.51
2022-08-18T15:04:55.819Z,31.55
2022-08-18T15:07:26.464Z,31.36
2022-08-18T15:10:15.622Z,31.36
2022-08-18T15:13:10.343Z,31.71
2022-08-18T15:15:42.427Z,33.25
2022-08-18T15:18:22.559Z,32.62
2022-08-18T15:21:34.691Z,33.66
2022-08-18T15:24:20.292Z,34.15
2022-08-18T15:26:51.575Z,33.75
2022-08-18T15:29:47.906Z,33.00
2022-08-18T15:32:18.758Z,33.73
2022-08-18T15:34:51.170Z,34.35
2022-08-18T15:37:22.318Z,33.88
2022-08-18T15:40:30.446Z,33.49
2022-08-18T15:43:01.520Z,32.96
2022-08-18T15:45:35.531Z,32.80
2022-08-18T15:48:04.171Z,32.65
2022-08-18T15:50:32.186Z,32.65
2022-08-18T15:53:07.934Z,32.47
2022-08-18T15:55:40.122Z,32.71
2022-08-18T15:58:11.074Z,33.42
2022-08-18T16:00:46.126Z,33.62
2022-08-18T16:03:21.126Z,33.24
2022-08-18T16:05:54.677Z,34.39
2022-08-18T16:08:24.815Z,34.82
2022-08-18T16:10:53.711Z,35.18
2022-08-18T16:13:29.103Z,35.53
2022-08-18T16:15:57.262Z,36.32
2022-08-18T16:18:30.291Z,36.98
2022-08-18T16:21:05.952Z,37.23
2022-08-18T16:23:33.718Z,37.17
2022-08-18T16:26:06.006Z,37.04
2022-08-18T16:28:35.248Z,36.92
2022-08-18T16:31:04.032Z,35.99
2022-08-18T16:33:32.024Z,36.26
2022-08-18T16:36:07.953Z,36.32
2022-08-18T16:38:38.207Z,36.75
2022-08-18T16:41:14.068Z,36.86
2022-08-18T16:43:44.596Z,36.73
2022-08-18T16:46:27.182Z,37.24
2022-08-18T16:48:57.368Z,37.50
2022-08-18T16:51:31.448Z,37.01
2022-08-18T16:53:59.741Z,37.04
2022-08-18T16:56:30.900Z,37.14
2022-08-18T16:59:17.155Z,36.77
2022-08-18T17:02:03.525Z,36.91
2022-08-18T17:04:33.756Z,37.13
2022-08-18T17:07:04.783Z,37.04
2022-08-18T17:09:57.919Z,36.84
2022-08-18T17:12:26.636Z,-149.27
2022-08-18T17:14:55.727Z,-149.27
2022-08-18T17:17:24.932Z,36.84
2022-08-18T17:19:53.937Z,35.22
2022-08-18T17:22:21.610Z,35.14
2022-08-18T17:24:50.582Z,35.14
2022-08-18T17:27:27.701Z,34.75
2022-08-18T17:30:13.727Z,34.94
2022-08-18T17:32:55.668Z,34.87
2022-08-18T17:35:28.967Z,34.77
2022-08-18T17:38:44.845Z,34.98
2022-08-18T17:41:13.225Z,34.81
2022-08-18T17:46:29.887Z,33.93
2022-08-18T17:49:16.190Z,33.41
2022-08-18T17:51:55.118Z,33.04
2022-08-18T17:54:29.793Z,32.57
2022-08-18T17:57:15.096Z,32.57
2022-08-18T17:59:57.933Z,31.92
2022-08-18T18:02:31.052Z,31.92
2022-08-18T18:05:04.402Z,31.74
2022-08-18T18:07:38.388Z,31.47
2022-08-18T18:10:14.131Z,31.18
2022-08-18T18:12:42.057Z,31.18
2022-08-18T18:15:13.269Z,-149.27
2022-08-18T18:17:43.358Z,30.68
2022-08-18T18:20:15.975Z,30.59
2022-08-18T18:22:45.032Z,30.31
2022-08-18T18:25:13.985Z,30.21
2022-08-18T18:27:44.163Z,30.12
2022-08-18T18:30:27.965Z,29.75
2022-08-18T18:32:59.137Z,29.85
2022-08-18T18:35:53.451Z,29.63
2022-08-18T18:38:36.590Z,29.35
2022-08-18T18:41:12.129Z,29.37
2022-08-18T18:43:46.782Z,29.16
2022-08-18T18:47:11.592Z,28.99
2022-08-18T18:49:43.955Z,29.02
2022-08-18T18:52:37.014Z,28.93
2022-08-18T18:55:07.495Z,28.83
2022-08-18T18:58:15.259Z,28.79
2022-08-18T19:00:54.337Z,28.64
2022-08-18T19:03:27.850Z,28.57
2022-08-18T19:06:05.591Z,28.46
2022-08-18T19:08:57.836Z,28.37
2022-08-18T19:11:57.509Z,28.36
2022-08-18T19:14:42.311Z,28.22
2022-08-18T19:17:34.305Z,28.03
2022-08-18T19:20:19.211Z,27.85
2022-08-18T19:23:04.553Z,27.76
2022-08-18T19:25:44.320Z,27.74
2022-08-18T19:28:31.340Z,27.65
2022-08-18T19:31:14.118Z,27.53
2022-08-18T19:33:56.847Z,27.41
2022-08-18T19:36:44.838Z,27.19
2022-08-18T19:39:21.611Z,27.12
2022-08-18T19:42:10.960Z,27.14
2022-08-18T19:45:16.754Z,27.02
2022-08-18T19:48:03.190Z,26.89
2022-08-18T19:50:34.748Z,26.77
2022-08-18T19:53:32.292Z,26.75
2022-08-18T19:56:09.528Z,26.65
2022-08-18T19:59:18.092Z,26.52
2022-08-18T20:01:51.935Z,26.32
2022-08-18T20:04:39.379Z,26.31
2022-08-18T20:07:47.060Z,26.24
2022-08-18T20:10:27.713Z,26.24
2022-08-18T20:13:15.593Z,26.26
2022-08-18T20:16:10.793Z,26.05
2022-08-18T20:18:49.568Z,26.02
2022-08-18T20:21:17.253Z,25.98
2022-08-18T20:24:07.212Z,25.97
2022-08-18T20:26:35.165Z,25.89
2022-08-18T20:29:03.472Z,25.87
2022-08-18T20:31:49.313Z,25.81
2022-08-18T20:34:23.237Z,25.73
2022-08-18T20:36:52.643Z,25.64
2022-08-18T20:39:38.817Z,25.61
2022-08-18T20:42:20.561Z,25.55
2022-08-18T20:44:48.539Z,25.52
2022-08-18T20:47:38.407Z,25.44
2022-08-18T20:50:46.031Z,25.42
2022-08-18T20:53:37.036Z,25.39
2022-08-18T20:56:32.019Z,25.24
2022-08-18T20:59:19.915Z,25.30
2022-08-18T21:02:26.368Z,25.22
2022-08-18T21:04:57.736Z,25.14
2022-08-18T21:07:37.850Z,25.13
2022-08-18T21:10:20.772Z,25.08
2022-08-18T21:12:54.401Z,24.95
2022-08-18T21:15:37.242Z,24.94
2022-08-18T21:18:21.269Z,24.82
2022-08-18T21:20:50.920Z,24.69
2022-08-18T21:23:37.558Z,24.69
2022-08-18T21:26:12.415Z,24.60
2022-08-18T21:28:45.536Z,24.56
2022-08-18T21:31:42.083Z,24.45
2022-08-18T21:34:18.461Z,24.44
2022-08-18T21:36:52.366Z,24.36
2022-08-18T21:39:21.029Z,24.29
2022-08-18T21:41:53.747Z,24.25
2022-08-18T21:44:23.725Z,24.18
2022-08-18T21:46:52.056Z,24.13
2022-08-18T21:49:26.460Z,24.08
2022-08-18T21:51:54.646Z,24.02
2022-08-18T21:54:25.360Z,23.95
2022-08-18T21:57:25.743Z,23.90
2022-08-18T22:00:20.491Z,23.83
2022-08-18T22:03:07.858Z,23.76
2022-08-18T22:05:55.896Z,23.69
2022-08-18T22:08:29.372Z,23.67
2022-08-18T22:12:01.122Z,23.61
2022-08-18T22:14:54.044Z,23.60
2022-08-18T22:17:28.532Z,23.56
2022-08-18T22:20:48.996Z,23.48
2022-08-18T22:23:44.957Z,23.45
2022-08-18T22:26:16.102Z,23.38
2022-08-18T22:28:58.736Z,23.35
2022-08-18T22:31:40.605Z,23.33
2022-08-18T22:34:28.030Z,23.29
2022-08-18T22:37:01.872Z,23.25
2022-08-18T22:39:40.915Z,23.21
2022-08-18T22:42:09.611Z,23.18
2022-08-18T22:44:38.015Z,23.14
2022-08-18T22:47:06.828Z,23.12
2022-08-18T22:49:36.818Z,23.06
2022-08-18T22:52:08.125Z,23.04
2022-08-18T22:54:35.934Z,22.99
2022-08-18T22:57:04.343Z,22.98
2022-08-18T22:59:35.306Z,22.93
2022-08-18T23:02:03.358Z,22.91
2022-08-18T23:04:31.286Z,22.88
2022-08-18T23:07:00.400Z,22.82
2022-08-18T23:09:31.451Z,22.82
2022-08-18T23:12:07.276Z,22.76
2022-08-18T23:14:35.580Z,22.74
2022-08-18T23:17:05.183Z,22.72
2022-08-18T23:19:33.483Z,22.68
2022-08-18T23:22:02.827Z,22.65
2022-08-18T23:24:31.041Z,22.61
2022-08-18T23:26:59.746Z,22.60
2022-08-18T23:29:32.393Z,22.57
2022-08-18T23:32:00.019Z,22.54
2022-08-18T23:34:28.150Z,22.52
2022-08-18T23:37:03.027Z,22.49
2022-08-18T23:39:33.403Z,22.48
2022-08-18T23:42:03.092Z,22.48
2022-08-18T23:44:33.036Z,22.44
2022-08-18T23:47:00.737Z,22.41
2022-08-18T23:49:30.432Z,22.37
2022-08-18T23:51:59.299Z,22.36
2022-08-18T23:54:34.202Z,22.33
2022-08-18T23:57:02.540Z,22.32
2022-08-18T23:59:30.331Z,22.30
